createdAt,value
2022-08-03T04:30:59.997Z,16.99
2022-08-03T04:31:59.976Z,16.99
2022-08-03T04:32:59.958Z,16.99
2022-08-03T04:33:59.938Z,16.99
2022-08-03T04:34:59.937Z,17.00
2022-08-03T04:36:02.661Z,17.03
2022-08-03T04:36:59.907Z,17.03
2022-08-03T04:37:59.888Z,17.06
2022-08-03T04:38:59.877Z,17.08
2022-08-03T04:39:59.867Z,17.07
2022-08-03T04:40:59.857Z,17.08
2022-08-03T04:42:08.122Z,17.11
2022-08-03T04:43:50.494Z,17.14
2022-08-03T04:44:50.472Z,17.20
2022-08-03T04:45:50.471Z,17.23
2022-08-03T04:46:50.559Z,17.25
2022-08-03T04:47:50.433Z,17.28
2022-08-03T04:48:50.423Z,17.29
2022-08-03T04:49:50.404Z,17.33
2022-08-03T04:50:50.414Z,17.36
2022-08-03T04:51:50.381Z,17.40
2022-08-03T04:52:50.584Z,17.44
2022-08-03T04:53:50.360Z,17.47
2022-08-03T04:54:51.109Z,17.48
2022-08-03T04:55:50.341Z,17.53
2022-08-03T04:56:50.322Z,17.53
2022-08-03T04:57:50.311Z,17.59
2022-08-03T04:58:50.293Z,17.63
2022-08-03T04:59:50.392Z,17.64
2022-08-03T05:00:50.275Z,17.70
2022-08-03T05:01:50.376Z,17.74
2022-08-03T05:02:50.241Z,17.94
2022-08-03T05:03:50.231Z,18.17
2022-08-03T05:04:50.219Z,18.44
2022-08-03T05:05:50.903Z,18.68
2022-08-03T05:06:54.127Z,18.91
2022-08-03T05:07:51.183Z,19.02
2022-08-03T05:08:50.896Z,19.01
2022-08-03T05:09:52.790Z,18.99
2022-08-03T05:10:51.159Z,18.97
2022-08-03T05:11:50.142Z,19.06
2022-08-03T05:12:50.113Z,19.21
2022-08-03T05:13:50.091Z,19.28
2022-08-03T05:14:50.103Z,19.29
2022-08-03T05:15:50.100Z,19.32
2022-08-03T05:16:50.091Z,19.35
2022-08-03T05:17:50.054Z,19.38
2022-08-03T05:18:50.043Z,19.40
2022-08-03T05:19:50.023Z,19.53
2022-08-03T05:20:50.082Z,19.60
2022-08-03T05:21:52.609Z,19.66
2022-08-03T05:22:49.990Z,19.75
2022-08-03T05:23:49.972Z,19.80
2022-08-03T05:24:49.962Z,19.83
2022-08-03T05:25:50.320Z,19.80
2022-08-03T05:26:49.946Z,19.83
2022-08-03T05:27:50.011Z,19.90
2022-08-03T05:28:50.611Z,20.00
2022-08-03T05:29:49.892Z,20.06
2022-08-03T05:30:49.883Z,20.13
2022-08-03T05:31:49.882Z,20.18
2022-08-03T05:32:49.886Z,20.21
2022-08-03T05:33:49.852Z,20.24
2022-08-03T05:34:49.833Z,20.27
2022-08-03T05:35:57.265Z,20.35
2022-08-03T05:36:50.823Z,20.42
2022-08-03T05:37:54.443Z,20.42
2022-08-03T05:38:50.793Z,20.47
2022-08-03T05:39:49.840Z,20.58
2022-08-03T05:40:56.748Z,20.62
2022-08-03T05:41:50.753Z,20.69
2022-08-03T05:42:49.732Z,20.80
2022-08-03T05:43:49.718Z,20.84
2022-08-03T05:44:49.731Z,20.89
2022-08-03T05:45:49.682Z,20.91
2022-08-03T05:46:50.682Z,20.95
2022-08-03T05:47:49.662Z,20.99
2022-08-03T05:48:49.698Z,21.05
2022-08-03T05:49:49.631Z,21.11
2022-08-03T05:50:49.661Z,21.19
2022-08-03T05:52:00.379Z,21.23
2022-08-03T05:52:50.604Z,21.32
2022-08-03T05:53:49.590Z,21.32
2022-08-03T05:54:57.324Z,21.36
2022-08-03T05:55:54.823Z,21.42
2022-08-03T05:56:50.553Z,21.53
2022-08-03T05:57:49.532Z,21.54
2022-08-03T05:58:49.570Z,21.56
2022-08-03T05:59:53.711Z,21.53
2022-08-03T06:00:50.495Z,21.56
2022-08-03T06:01:49.574Z,21.57
2022-08-03T06:02:49.473Z,21.60
2022-08-03T06:03:49.455Z,21.63
2022-08-03T06:04:49.444Z,21.66
2022-08-03T06:05:55.574Z,21.67
2022-08-03T06:06:50.436Z,21.69
2022-08-03T06:07:49.410Z,21.67
2022-08-03T06:08:49.394Z,21.69
2022-08-03T06:10:35.482Z,21.71
2022-08-03T06:10:50.364Z,21.75
2022-08-03T06:11:49.354Z,21.82
2022-08-03T06:12:49.345Z,21.91
2022-08-03T06:13:49.345Z,21.95
2022-08-03T06:14:49.315Z,21.98
2022-08-03T06:15:49.303Z,22.04
2022-08-03T06:16:49.306Z,22.04
2022-08-03T06:17:49.275Z,22.06
2022-08-03T06:18:49.263Z,22.13
2022-08-03T06:19:49.244Z,22.20
2022-08-03T06:20:49.600Z,22.23
2022-08-03T06:21:49.232Z,22.25
2022-08-03T06:22:50.777Z,22.22
2022-08-03T06:23:53.851Z,22.25
2022-08-03T06:24:53.443Z,22.28
2022-08-03T06:25:49.179Z,22.32
2022-08-03T06:26:49.164Z,22.35
2022-08-03T06:27:49.155Z,22.39
2022-08-03T06:28:52.168Z,22.44
2022-08-03T06:29:49.155Z,22.50
2022-08-03T06:30:49.782Z,22.54
2022-08-03T06:31:49.114Z,22.59
2022-08-03T06:32:52.218Z,22.65
2022-08-03T06:34:33.789Z,22.75
2022-08-03T06:34:50.057Z,22.86
2022-08-03T06:35:49.047Z,22.86
2022-08-03T06:36:49.028Z,22.90
2022-08-03T06:37:49.047Z,22.92
2022-08-03T06:38:48.996Z,22.93
2022-08-03T06:39:48.996Z,22.97
2022-08-03T06:40:48.978Z,22.97
2022-08-03T06:41:48.966Z,23.09
2022-08-03T06:42:48.957Z,23.15
2022-08-03T06:44:02.933Z,23.23
2022-08-03T06:44:49.936Z,23.32
2022-08-03T06:45:48.905Z,23.39
2022-08-03T06:46:48.908Z,23.43
2022-08-03T06:47:48.909Z,23.47
2022-08-03T06:48:48.896Z,23.55
2022-08-03T06:50:13.017Z,23.57
2022-08-03T06:50:49.846Z,23.57
2022-08-03T06:52:37.069Z,23.60
2022-08-03T06:52:49.849Z,23.58
2022-08-03T06:53:48.815Z,23.60
2022-08-03T06:54:48.814Z,23.61
2022-08-03T06:55:53.871Z,23.60
2022-08-03T06:56:49.766Z,23.60
2022-08-03T06:57:48.775Z,23.60
2022-08-03T06:58:48.748Z,23.70
2022-08-03T07:00:09.680Z,23.77
2022-08-03T07:00:49.719Z,23.89
2022-08-03T07:01:48.757Z,23.98
2022-08-03T07:02:48.706Z,24.07
2022-08-03T07:03:52.122Z,24.12
2022-08-03T07:04:48.679Z,24.17
2022-08-03T07:05:48.657Z,24.23
2022-08-03T07:06:48.638Z,24.31
2022-08-03T07:07:48.647Z,24.37
2022-08-03T07:08:52.298Z,24.47
2022-08-03T07:09:56.628Z,24.54
2022-08-03T07:10:49.587Z,24.59
2022-08-03T07:11:48.577Z,24.63
2022-08-03T07:12:52.644Z,24.68
2022-08-03T07:13:49.561Z,24.67
2022-08-03T07:14:48.539Z,24.63
2022-08-03T07:15:55.633Z,24.64
2022-08-03T07:16:49.517Z,24.69
2022-08-03T07:17:48.519Z,24.75
2022-08-03T07:18:48.488Z,24.80
2022-08-03T07:19:48.478Z,24.85
2022-08-03T07:20:48.466Z,24.88
2022-08-03T07:21:48.457Z,24.92
2022-08-03T07:22:48.448Z,24.97
2022-08-03T07:23:48.429Z,24.98
2022-08-03T07:24:48.419Z,25.01
2022-08-03T07:25:48.417Z,25.07
2022-08-03T07:26:48.399Z,25.07
2022-08-03T07:27:51.684Z,25.13
2022-08-03T07:28:48.360Z,25.22
2022-08-03T07:29:48.360Z,25.25
2022-08-03T07:30:48.363Z,25.28
2022-08-03T07:31:48.330Z,25.27
2022-08-03T07:32:50.350Z,25.35
2022-08-03T07:33:48.310Z,25.44
2022-08-03T07:34:48.290Z,25.52
2022-08-03T07:35:48.281Z,25.61
2022-08-03T07:36:48.259Z,25.61
2022-08-03T07:37:54.436Z,25.61
2022-08-03T07:38:49.239Z,25.62
2022-08-03T07:39:48.229Z,25.62
2022-08-03T07:40:48.212Z,25.61
2022-08-03T07:41:48.200Z,25.59
2022-08-03T07:42:48.199Z,25.57
2022-08-03T07:43:48.171Z,25.65
2022-08-03T07:44:48.170Z,25.69
2022-08-03T07:45:48.149Z,25.74
2022-08-03T07:46:48.140Z,25.82
2022-08-03T07:47:53.690Z,25.87
2022-08-03T07:48:49.111Z,25.90
2022-08-03T07:49:48.099Z,25.99
2022-08-03T07:50:48.091Z,26.05
2022-08-03T07:51:48.071Z,26.05
2022-08-03T07:52:48.071Z,26.09
2022-08-03T07:53:48.083Z,26.12
2022-08-03T07:54:48.040Z,26.20
2022-08-03T07:55:48.019Z,26.21
2022-08-03T07:56:48.011Z,26.25
2022-08-03T07:57:48.009Z,26.29
2022-08-03T07:58:47.983Z,26.32
2022-08-03T07:59:56.401Z,26.39
2022-08-03T08:00:49.025Z,26.43
2022-08-03T08:01:48.007Z,26.37
2022-08-03T08:02:47.941Z,26.36
2022-08-03T08:03:53.456Z,26.39
2022-08-03T08:04:48.901Z,26.44
2022-08-03T08:05:47.883Z,26.54
2022-08-03T08:06:47.873Z,26.55
2022-08-03T08:07:51.490Z,26.55
2022-08-03T08:08:47.852Z,26.49
2022-08-03T08:09:47.833Z,26.57
2022-08-03T08:10:57.824Z,26.68
2022-08-03T08:11:48.810Z,26.76
2022-08-03T08:12:47.842Z,26.87
2022-08-03T08:13:47.790Z,26.94
2022-08-03T08:14:47.772Z,26.95
2022-08-03T08:15:47.756Z,26.94
2022-08-03T08:16:47.743Z,27.01
2022-08-03T08:17:47.743Z,26.98
2022-08-03T08:18:47.722Z,27.01
2022-08-03T08:19:51.538Z,27.13
2022-08-03T08:20:47.703Z,27.16
2022-08-03T08:21:53.470Z,27.16
2022-08-03T08:22:48.693Z,27.17
2022-08-03T08:23:57.026Z,27.23
2022-08-03T08:24:48.654Z,27.20
2022-08-03T08:25:47.647Z,27.24
2022-08-03T08:26:47.624Z,27.35
2022-08-03T08:28:30.756Z,27.35
2022-08-03T08:28:48.599Z,27.23
2022-08-03T08:29:54.195Z,27.23
2022-08-03T08:30:48.594Z,27.24
2022-08-03T08:31:47.557Z,27.29
2022-08-03T08:32:47.546Z,27.31
2022-08-03T08:34:03.675Z,27.33
2022-08-03T08:34:48.514Z,27.24
2022-08-03T08:35:47.504Z,27.23
2022-08-03T08:36:47.507Z,27.31
2022-08-03T08:37:51.106Z,27.29
2022-08-03T08:38:47.487Z,27.24
2022-08-03T08:39:47.454Z,27.20
2022-08-03T08:40:47.444Z,27.20
2022-08-03T08:41:49.637Z,27.17
2022-08-03T08:42:57.844Z,27.23
2022-08-03T08:43:48.414Z,27.20
2022-08-03T08:44:47.394Z,27.24
2022-08-03T08:45:47.382Z,27.32
2022-08-03T08:46:47.371Z,27.39
2022-08-03T08:47:51.067Z,27.39
2022-08-03T08:48:47.353Z,27.47
2022-08-03T08:50:08.473Z,27.58
2022-08-03T08:50:48.319Z,27.66
2022-08-03T08:51:59.708Z,27.77
2022-08-03T08:52:48.296Z,27.94
2022-08-03T08:53:47.285Z,28.06
2022-08-03T08:54:47.266Z,28.16
2022-08-03T08:55:59.400Z,28.17
2022-08-03T08:56:48.245Z,28.13
2022-08-03T08:57:47.227Z,28.17
2022-08-03T08:58:47.226Z,28.21
2022-08-03T08:59:49.290Z,28.19
2022-08-03T09:00:47.224Z,28.26
2022-08-03T09:01:47.176Z,28.28
2022-08-03T09:02:47.166Z,28.26
2022-08-03T09:03:47.167Z,28.23
2022-08-03T09:04:47.146Z,28.26
2022-08-03T09:05:55.829Z,28.44
2022-08-03T09:07:10.554Z,28.58
2022-08-03T09:07:48.098Z,28.46
2022-08-03T09:08:47.108Z,28.40
2022-08-03T09:10:11.436Z,28.35
2022-08-03T09:10:48.068Z,28.31
2022-08-03T09:12:00.418Z,28.41
2022-08-03T09:12:48.040Z,28.41
2022-08-03T09:13:47.035Z,28.40
2022-08-03T09:15:07.315Z,28.40
2022-08-03T09:15:57.180Z,28.38
2022-08-03T09:16:47.998Z,28.44
2022-08-03T09:17:50.920Z,28.46
2022-08-03T09:18:46.977Z,28.44
2022-08-03T09:20:03.466Z,28.51
2022-08-03T09:20:47.939Z,28.68
2022-08-03T09:21:46.926Z,28.75
2022-08-03T09:22:46.918Z,28.80
2022-08-03T09:24:01.328Z,28.77
2022-08-03T09:25:03.205Z,28.75
2022-08-03T09:25:47.869Z,28.91
2022-08-03T09:26:46.859Z,28.93
2022-08-03T09:27:46.849Z,28.78
2022-08-03T09:29:01.491Z,28.82
2022-08-03T09:29:47.830Z,28.78
2022-08-03T09:30:46.810Z,28.88
2022-08-03T09:31:47.141Z,28.95
2022-08-03T09:32:46.788Z,28.80
2022-08-03T09:33:46.769Z,28.82
2022-08-03T09:34:46.779Z,29.07
2022-08-03T09:35:54.985Z,29.47
2022-08-03T09:36:47.739Z,29.78
2022-08-03T09:38:12.291Z,30.49
2022-08-03T09:38:47.712Z,30.72
2022-08-03T09:39:46.715Z,31.04
2022-08-03T09:40:46.680Z,30.57
2022-08-03T09:41:46.672Z,30.33
2022-08-03T09:42:46.662Z,30.08
2022-08-03T09:43:46.662Z,30.00
2022-08-03T09:44:46.640Z,29.99
2022-08-03T09:45:46.618Z,29.70
2022-08-03T09:46:46.613Z,29.70
2022-08-03T09:47:46.610Z,29.55
2022-08-03T09:48:46.621Z,29.35
2022-08-03T09:49:46.570Z,29.20
2022-08-03T09:50:57.135Z,29.06
2022-08-03T09:52:32.613Z,29.04
2022-08-03T09:52:49.833Z,29.01
2022-08-03T09:53:57.093Z,29.06
2022-08-03T09:54:47.515Z,29.25
2022-08-03T09:56:35.002Z,29.41
2022-08-03T09:56:47.510Z,29.53
2022-08-03T09:57:46.474Z,29.62
2022-08-03T09:58:46.462Z,29.77
2022-08-03T09:59:46.456Z,30.03
2022-08-03T10:00:46.485Z,30.47
2022-08-03T10:01:46.556Z,30.43
2022-08-03T10:02:46.414Z,30.91
2022-08-03T10:03:47.012Z,30.87
2022-08-03T10:04:47.403Z,30.91
2022-08-03T10:05:46.374Z,31.18
2022-08-03T10:06:46.377Z,31.06
2022-08-03T10:07:46.410Z,31.35
2022-08-03T10:08:46.338Z,31.42
2022-08-03T10:09:46.334Z,31.45
2022-08-03T10:10:46.322Z,31.65
2022-08-03T10:11:46.294Z,31.91
2022-08-03T10:12:46.284Z,32.39
2022-08-03T10:13:46.273Z,32.55
2022-08-03T10:14:46.275Z,32.81
2022-08-03T10:16:22.241Z,32.58
2022-08-03T10:16:47.234Z,32.49
2022-08-03T10:17:46.214Z,32.49
2022-08-03T10:18:46.214Z,32.67
2022-08-03T10:19:46.205Z,32.96
2022-08-03T10:20:46.186Z,32.92
2022-08-03T10:21:46.169Z,33.31
2022-08-03T10:22:46.156Z,33.14
2022-08-03T10:23:46.149Z,33.52
2022-08-03T10:24:46.145Z,33.42
2022-08-03T10:25:46.117Z,33.46
2022-08-03T10:26:49.505Z,33.94
2022-08-03T10:27:46.096Z,33.49
2022-08-03T10:28:46.087Z,33.20
2022-08-03T10:29:46.077Z,32.61
2022-08-03T10:30:46.069Z,32.20
2022-08-03T10:31:55.875Z,31.79
2022-08-03T10:32:47.038Z,31.70
2022-08-03T10:33:50.805Z,31.54
2022-08-03T10:34:47.019Z,31.28
2022-08-03T10:35:45.998Z,31.64
2022-08-03T10:36:45.988Z,32.14
2022-08-03T10:37:56.412Z,32.58
2022-08-03T10:38:46.971Z,32.57
2022-08-03T10:39:45.959Z,32.76
2022-08-03T10:40:49.353Z,33.08
2022-08-03T10:41:46.927Z,32.99
2022-08-03T10:42:45.914Z,32.58
2022-08-03T10:43:52.951Z,31.85
2022-08-03T10:44:45.924Z,31.36
2022-08-03T10:45:45.904Z,30.94
2022-08-03T10:46:45.883Z,30.67
2022-08-03T10:47:45.876Z,30.53
2022-08-03T10:48:45.844Z,30.75
2022-08-03T10:49:45.889Z,31.68
2022-08-03T10:50:45.814Z,32.59
2022-08-03T10:51:45.810Z,33.26
2022-08-03T10:52:49.149Z,33.63
2022-08-03T10:53:52.812Z,33.71
2022-08-03T10:54:46.775Z,33.78
2022-08-03T10:55:45.757Z,34.31
2022-08-03T10:56:50.425Z,34.34
2022-08-03T10:57:45.822Z,34.46
2022-08-03T10:58:56.957Z,34.58
2022-08-03T10:59:46.795Z,34.44
2022-08-03T11:00:45.728Z,34.79
2022-08-03T11:01:58.640Z,34.73
2022-08-03T11:02:46.667Z,34.79
2022-08-03T11:03:45.665Z,35.02
2022-08-03T11:04:45.657Z,35.35
2022-08-03T11:05:45.659Z,35.84
2022-08-03T11:06:45.638Z,35.97
2022-08-03T11:07:45.656Z,36.00
2022-08-03T11:08:46.610Z,35.58
2022-08-03T11:09:45.598Z,35.15
2022-08-03T11:10:45.577Z,34.91
2022-08-03T11:11:45.566Z,34.31
2022-08-03T11:12:45.565Z,33.82
2022-08-03T11:13:45.577Z,33.31
2022-08-03T11:14:45.548Z,33.52
2022-08-03T11:15:45.519Z,33.74
2022-08-03T11:16:45.501Z,34.01
2022-08-03T11:17:46.136Z,34.23
2022-08-03T11:18:46.479Z,34.35
2022-08-03T11:19:57.455Z,34.61
2022-08-03T11:20:46.469Z,34.66
2022-08-03T11:21:45.459Z,34.07
2022-08-03T11:22:45.471Z,33.58
2022-08-03T11:24:05.421Z,33.31
2022-08-03T11:24:46.435Z,33.55
2022-08-03T11:25:54.807Z,33.65
2022-08-03T11:26:46.404Z,33.87
2022-08-03T11:27:45.397Z,34.11
2022-08-03T11:28:45.361Z,34.39
2022-08-03T11:29:45.352Z,34.57
2022-08-03T11:30:45.350Z,34.51
2022-08-03T11:31:50.392Z,34.96
2022-08-03T11:32:46.693Z,34.41
2022-08-03T11:33:45.310Z,33.51
2022-08-03T11:34:45.290Z,32.81
2022-08-03T11:35:45.292Z,32.44
2022-08-03T11:36:45.262Z,33.57
2022-08-03T11:38:04.395Z,34.24
2022-08-03T11:38:46.291Z,34.74
2022-08-03T11:39:45.231Z,35.07
2022-08-03T11:40:45.227Z,35.11
2022-08-03T11:41:45.423Z,35.18
2022-08-03T11:42:45.218Z,35.28
2022-08-03T11:43:45.194Z,34.84
2022-08-03T11:44:47.521Z,34.57
2022-08-03T11:45:45.174Z,34.19
2022-08-03T11:46:45.153Z,33.83
2022-08-03T11:47:50.218Z,33.63
2022-08-03T11:48:46.125Z,33.85
2022-08-03T11:49:45.122Z,34.04
2022-08-03T11:50:45.115Z,34.23
2022-08-03T11:51:45.104Z,34.27
2022-08-03T11:52:45.077Z,34.57
2022-08-03T11:53:45.075Z,35.08
2022-08-03T11:54:45.060Z,35.74
2022-08-03T11:55:45.056Z,36.52
2022-08-03T11:56:45.038Z,36.94
2022-08-03T11:59:01.153Z,36.79
2022-08-03T11:59:12.806Z,37.39
2022-08-03T11:59:46.018Z,36.90
2022-08-03T12:00:45.024Z,37.07
2022-08-03T12:01:44.987Z,36.79
2022-08-03T12:02:45.018Z,37.16
2022-08-03T12:03:46.035Z,36.38
2022-08-03T12:04:44.938Z,35.74
2022-08-03T12:05:51.697Z,35.64
2022-08-03T12:06:47.427Z,35.93
2022-08-03T12:08:03.714Z,36.30
2022-08-03T12:08:45.887Z,36.42
2022-08-03T12:09:44.881Z,36.07
2022-08-03T12:10:44.881Z,35.97
2022-08-03T12:11:50.881Z,36.14
2022-08-03T12:12:46.672Z,36.46
2022-08-03T12:14:43.733Z,36.99
2022-08-03T12:14:51.857Z,36.83
2022-08-03T12:15:45.819Z,36.56
2022-08-03T12:16:44.798Z,36.95
2022-08-03T12:17:44.788Z,37.05
2022-08-03T12:18:44.770Z,37.17
2022-08-03T12:19:44.760Z,37.16
2022-08-03T12:20:44.759Z,36.54
2022-08-03T12:21:44.740Z,35.55
2022-08-03T12:22:45.741Z,34.84
2022-08-03T12:23:44.740Z,34.64
2022-08-03T12:24:46.905Z,34.50
2022-08-03T12:25:44.721Z,34.73
2022-08-03T12:26:44.688Z,35.63
2022-08-03T12:27:45.671Z,36.35
2022-08-03T12:28:49.347Z,36.75
2022-08-03T12:29:58.389Z,37.21
2022-08-03T12:30:46.497Z,37.55
2022-08-03T12:31:44.622Z,37.61
2022-08-03T12:32:44.612Z,38.01
2022-08-03T12:33:44.603Z,38.07
2022-08-03T12:34:47.246Z,37.96
2022-08-03T12:35:52.220Z,38.23
2022-08-03T12:36:45.565Z,38.42
2022-08-03T12:37:44.553Z,38.33
2022-08-03T12:38:44.542Z,38.22
2022-08-03T12:40:02.213Z,38.17
2022-08-03T12:40:45.534Z,38.32
2022-08-03T12:41:44.594Z,38.34
2022-08-03T12:42:44.504Z,38.38
2022-08-03T12:43:44.495Z,37.89
2022-08-03T12:44:44.478Z,37.24
2022-08-03T12:45:44.475Z,37.66
2022-08-03T12:46:47.943Z,37.95
2022-08-03T12:47:44.445Z,37.89
2022-08-03T12:48:44.439Z,37.85
2022-08-03T12:49:44.426Z,37.54
2022-08-03T12:50:44.430Z,37.36
2022-08-03T12:51:44.405Z,37.78
2022-08-03T12:52:44.387Z,38.29
2022-08-03T12:53:44.401Z,38.36
2022-08-03T12:54:44.356Z,38.24
2022-08-03T12:56:04.358Z,37.47
2022-08-03T12:56:45.347Z,37.02
2022-08-03T12:57:44.337Z,36.52
2022-08-03T12:58:44.316Z,36.43
2022-08-03T12:59:49.923Z,36.94
2022-08-03T13:00:45.298Z,37.26
2022-08-03T13:01:55.400Z,37.04
2022-08-03T13:02:46.428Z,37.07
2022-08-03T13:03:49.571Z,36.49
2022-08-03T13:04:45.247Z,35.91
2022-08-03T13:05:44.249Z,35.97
2022-08-03T13:06:44.237Z,36.23
2022-08-03T13:07:45.874Z,36.65
2022-08-03T13:08:44.198Z,37.05
2022-08-03T13:09:44.197Z,37.48
2022-08-03T13:10:44.185Z,37.81
2022-08-03T13:11:55.724Z,38.18
2022-08-03T13:12:45.213Z,38.39
2022-08-03T13:13:44.148Z,38.27
2022-08-03T13:14:44.130Z,38.11
2022-08-03T13:15:47.807Z,38.23
2022-08-03T13:16:44.127Z,38.32
2022-08-03T13:17:44.109Z,38.45
2022-08-03T13:18:44.099Z,38.38
2022-08-03T13:19:44.089Z,37.64
2022-08-03T13:20:44.070Z,37.26
2022-08-03T13:22:01.410Z,37.20
2022-08-03T13:22:45.049Z,37.90
2022-08-03T13:23:44.062Z,38.20
2022-08-03T13:24:44.065Z,38.39
2022-08-03T13:25:55.194Z,38.51
2022-08-03T13:26:45.062Z,38.33
2022-08-03T13:28:04.517Z,38.03
2022-08-03T13:28:44.980Z,38.17
2022-08-03T13:29:43.971Z,38.11
2022-08-03T13:30:43.961Z,38.03
2022-08-03T13:31:51.182Z,37.55
2022-08-03T13:32:44.931Z,37.12
2022-08-03T13:33:43.932Z,36.64
2022-08-03T13:34:43.913Z,36.82
2022-08-03T13:35:43.902Z,37.42
2022-08-03T13:37:07.855Z,37.51
2022-08-03T13:37:47.399Z,37.31
2022-08-03T13:38:43.931Z,37.42
2022-08-03T13:39:57.993Z,37.62
2022-08-03T13:40:46.105Z,37.80
2022-08-03T13:41:43.842Z,37.85
2022-08-03T13:42:43.856Z,37.81
2022-08-03T13:43:44.764Z,38.14
2022-08-03T13:44:43.824Z,38.10
2022-08-03T13:45:49.378Z,38.05
2022-08-03T13:46:44.782Z,38.34
2022-08-03T13:47:43.807Z,38.66
2022-08-03T13:48:43.765Z,38.76
2022-08-03T13:49:59.510Z,37.56
2022-08-03T13:50:44.735Z,37.56
2022-08-03T13:51:43.728Z,37.31
2022-08-03T13:52:43.727Z,37.35
2022-08-03T13:53:43.732Z,37.74
2022-08-03T13:54:46.145Z,38.10
2022-08-03T13:55:43.684Z,38.11
2022-08-03T13:56:43.665Z,38.24
2022-08-03T13:58:03.795Z,38.27
2022-08-03T13:58:44.647Z,38.14
2022-08-03T13:59:43.637Z,38.30
2022-08-03T14:00:43.626Z,38.44
2022-08-03T14:01:55.015Z,38.42
2022-08-03T14:02:44.675Z,38.46
2022-08-03T14:03:43.626Z,38.29
2022-08-03T14:04:43.597Z,38.20
2022-08-03T14:05:43.622Z,38.30
2022-08-03T14:06:45.966Z,38.27
2022-08-03T14:07:43.556Z,38.42
2022-08-03T14:08:43.548Z,38.60
2022-08-03T14:09:43.519Z,38.87
2022-08-03T14:10:43.520Z,39.01
2022-08-03T14:12:08.467Z,39.30
2022-08-03T14:12:44.506Z,39.44
2022-08-03T14:13:43.479Z,39.43
2022-08-03T14:14:43.468Z,39.64
2022-08-03T14:15:43.458Z,39.64
2022-08-03T14:16:44.448Z,39.61
2022-08-03T14:17:50.126Z,39.03
2022-08-03T14:18:44.418Z,38.85
2022-08-03T14:19:53.590Z,39.06
2022-08-03T14:20:48.660Z,39.24
2022-08-03T14:21:44.389Z,38.92
2022-08-03T14:22:44.419Z,38.51
2022-08-03T14:23:43.371Z,38.52
2022-08-03T14:24:43.358Z,38.44
2022-08-03T14:25:50.341Z,38.34
2022-08-03T14:26:44.351Z,38.63
2022-08-03T14:27:43.321Z,38.48
2022-08-03T14:28:43.353Z,38.68
2022-08-03T14:29:43.308Z,38.68
2022-08-03T14:30:43.290Z,38.52
2022-08-03T14:32:09.875Z,38.57
2022-08-03T14:32:44.269Z,38.07
2022-08-03T14:33:43.271Z,37.98
2022-08-03T14:34:43.253Z,38.18
2022-08-03T14:35:43.241Z,38.32
2022-08-03T14:36:43.222Z,38.39
2022-08-03T14:37:43.212Z,38.44
2022-08-03T14:38:43.218Z,38.53
2022-08-03T14:39:59.962Z,38.38
2022-08-03T14:40:44.188Z,38.04
2022-08-03T14:41:43.170Z,38.20
2022-08-03T14:42:43.160Z,38.45
2022-08-03T14:44:01.040Z,37.92
2022-08-03T14:44:44.145Z,37.99
2022-08-03T14:45:43.122Z,37.89
2022-08-03T14:46:43.142Z,37.85
2022-08-03T14:50:33.696Z,38.05
2022-08-03T14:50:33.784Z,37.85
2022-08-03T14:50:35.966Z,38.29
2022-08-03T14:50:50.284Z,38.49
2022-08-03T14:51:53.323Z,38.86
2022-08-03T14:52:44.052Z,38.92
2022-08-03T14:53:43.054Z,38.98
2022-08-03T14:54:43.026Z,39.27
2022-08-03T14:55:50.690Z,39.44
2022-08-03T14:56:44.003Z,39.06
2022-08-03T14:57:42.992Z,39.27
2022-08-03T14:58:42.984Z,39.36
2022-08-03T14:59:55.515Z,39.09
2022-08-03T15:00:43.964Z,38.60
2022-08-03T15:02:02.545Z,38.27
2022-08-03T15:02:43.957Z,38.26
2022-08-03T15:03:42.954Z,38.42
2022-08-03T15:04:42.905Z,38.52
2022-08-03T15:05:42.913Z,38.96
2022-08-03T15:06:42.885Z,39.14
2022-08-03T15:07:42.876Z,39.21
2022-08-03T15:08:51.380Z,39.32
2022-08-03T15:09:43.856Z,39.24
2022-08-03T15:10:45.279Z,39.44
2022-08-03T15:11:42.847Z,39.61
2022-08-03T15:12:42.816Z,39.74
2022-08-03T15:13:42.888Z,39.83
2022-08-03T15:14:42.804Z,39.70
2022-08-03T15:15:42.804Z,39.64
2022-08-03T15:16:42.767Z,39.03
2022-08-03T15:17:59.766Z,38.70
2022-08-03T15:18:43.798Z,38.44
2022-08-03T15:20:01.997Z,38.11
2022-08-03T15:20:45.937Z,38.12
2022-08-03T15:21:47.408Z,38.30
2022-08-03T15:22:43.717Z,38.38
2022-08-03T15:23:42.709Z,38.58
2022-08-03T15:24:42.688Z,38.70
2022-08-03T15:26:32.048Z,38.34
2022-08-03T15:26:43.660Z,38.08
2022-08-03T15:28:04.112Z,37.56
2022-08-03T15:28:43.648Z,37.24
2022-08-03T15:30:05.527Z,37.68
2022-08-03T15:30:43.618Z,37.96
2022-08-03T15:31:42.631Z,38.27
2022-08-03T15:32:42.597Z,38.34
2022-08-03T15:33:42.608Z,38.61
2022-08-03T15:34:42.580Z,38.82
2022-08-03T15:35:43.569Z,38.75
2022-08-03T15:36:42.571Z,38.61
2022-08-03T15:37:42.553Z,38.63
2022-08-03T15:38:42.539Z,38.76
2022-08-03T15:39:59.830Z,39.03
2022-08-03T15:40:43.511Z,39.24
2022-08-03T15:41:42.500Z,39.35
2022-08-03T15:42:42.490Z,39.39
2022-08-03T15:43:42.490Z,39.44
2022-08-03T15:44:43.462Z,39.58
2022-08-03T15:45:42.468Z,39.47
2022-08-03T15:46:42.449Z,39.35
2022-08-03T15:47:42.442Z,38.99
2022-08-03T15:48:42.430Z,38.57
2022-08-03T15:49:42.412Z,38.85
2022-08-03T15:50:42.391Z,38.85
2022-08-03T15:51:42.391Z,38.80
2022-08-03T15:52:42.372Z,38.68
2022-08-03T15:53:42.371Z,38.57
2022-08-03T15:54:42.351Z,38.61
2022-08-03T15:55:42.341Z,38.57
2022-08-03T15:56:42.340Z,37.95
2022-08-03T15:59:03.591Z,37.89
2022-08-03T15:59:10.431Z,37.50
2022-08-03T15:59:43.293Z,37.26
2022-08-03T16:00:42.282Z,36.86
2022-08-03T16:01:42.308Z,36.73
2022-08-03T16:02:42.264Z,36.83
2022-08-03T16:03:42.266Z,36.98
2022-08-03T16:04:42.235Z,36.79
2022-08-03T16:05:42.238Z,36.54
2022-08-03T16:06:42.213Z,36.31
2022-08-03T16:07:42.206Z,36.06
2022-08-03T16:08:43.213Z,36.04
2022-08-03T16:09:43.853Z,35.72
2022-08-03T16:10:42.175Z,35.37
2022-08-03T16:11:42.166Z,35.63
2022-08-03T16:12:42.147Z,36.38
2022-08-03T16:14:13.179Z,36.98
2022-08-03T16:14:51.749Z,37.54
2022-08-03T16:15:43.118Z,37.58
2022-08-03T16:16:42.095Z,37.74
2022-08-03T16:17:42.095Z,37.89
2022-08-03T16:18:42.085Z,37.85
2022-08-03T16:19:42.078Z,37.81
2022-08-03T16:20:42.053Z,38.01
2022-08-03T16:21:48.001Z,37.66
2022-08-03T16:22:43.035Z,37.19
2022-08-03T16:23:42.025Z,37.01
2022-08-03T16:24:43.041Z,37.21
2022-08-03T16:25:42.008Z,37.24
2022-08-03T16:26:41.988Z,37.07
2022-08-03T16:28:03.194Z,37.19
2022-08-03T16:28:42.967Z,37.38
2022-08-03T16:29:41.978Z,37.59
2022-08-03T16:30:41.948Z,37.50
2022-08-03T16:31:41.938Z,37.36
2022-08-03T16:32:42.917Z,37.32
2022-08-03T16:33:41.918Z,37.29
2022-08-03T16:34:41.917Z,37.09
2022-08-03T16:35:41.907Z,37.01
2022-08-03T16:36:41.878Z,36.99
2022-08-03T16:37:56.633Z,36.67
2022-08-03T16:38:42.858Z,36.11
2022-08-03T16:39:41.941Z,36.11
2022-08-03T16:40:41.839Z,35.92
2022-08-03T16:41:53.623Z,35.77
2022-08-03T16:42:42.822Z,35.70
2022-08-03T16:43:48.879Z,35.63
2022-08-03T16:44:41.798Z,35.44
2022-08-03T16:45:41.780Z,35.06
2022-08-03T16:46:41.780Z,34.89
2022-08-03T16:47:41.761Z,35.02
2022-08-03T16:48:41.831Z,35.20
2022-08-03T16:49:55.030Z,35.23
2022-08-03T16:50:42.720Z,35.06
2022-08-03T16:51:50.373Z,34.98
2022-08-03T16:52:42.693Z,34.98
2022-08-03T16:54:05.446Z,35.17
2022-08-03T16:54:42.682Z,35.47
2022-08-03T16:55:48.799Z,35.60
2022-08-03T16:56:42.665Z,35.79
2022-08-03T16:57:58.780Z,35.85
2022-08-03T16:58:44.451Z,35.99
2022-08-03T16:59:41.644Z,36.03
2022-08-03T17:00:42.150Z,36.01
2022-08-03T17:01:41.625Z,36.06
2022-08-03T17:02:48.268Z,36.14
2022-08-03T17:04:01.819Z,36.23
2022-08-03T17:04:42.591Z,36.41
2022-08-03T17:05:46.864Z,36.46
2022-08-03T17:06:45.107Z,36.45
2022-08-03T17:07:41.619Z,36.35
2022-08-03T17:08:42.511Z,36.19
2022-08-03T17:09:42.495Z,35.97
2022-08-03T17:10:41.495Z,35.73
2022-08-03T17:11:46.665Z,35.63
2022-08-03T17:12:42.454Z,35.67
2022-08-03T17:13:41.454Z,35.36
2022-08-03T17:14:41.435Z,35.35
2022-08-03T17:15:57.842Z,35.33
2022-08-03T17:16:51.895Z,35.52
2022-08-03T17:17:53.362Z,35.60
2022-08-03T17:18:47.557Z,35.55
2022-08-03T17:19:42.375Z,35.50
2022-08-03T17:20:42.568Z,35.08
2022-08-03T17:21:41.357Z,35.15
2022-08-03T17:22:41.336Z,35.02
2022-08-03T17:23:41.338Z,34.96